Time;durP1;ratioP1;P1;durP2;ratioP2;P2;SDS_P1;SDS_P2;PMS_P1;PMS_P2;Temp;Humidity;BMP_temperature;BMP_pressure;BME280_temperature;BME280_humidity;BME280_pressure;Samples;Min_cycle;Max_cycle;Signal;HPM_P1;HPM_P2
2023/04/22 00:00:44;;;;;;;14.65;10.70;;;11.10;99.90;;;;;;5058983;28;20119;-69
2023/04/22 00:03:11;;;;;;;16.30;10.27;;;11.10;99.90;;;;;;5001528;28;209189;-69
2023/04/22 00:05:37;;;;;;;16.25;10.18;;;11.10;99.90;;;;;;5054600;28;20060;-69
2023/04/22 00:08:03;;;;;;;14.65;10.48;;;11.10;99.90;;;;;;4985061;28;206335;-68
2023/04/22 00:10:29;;;;;;;18.23;11.77;;;11.10;99.90;;;;;;5053686;28;20064;-68
2023/04/22 00:12:55;;;;;;;14.70;10.23;;;11.00;99.90;;;;;;4983763;28;208641;-69
2023/04/22 00:15:21;;;;;;;17.33;11.70;;;10.90;99.90;;;;;;5056479;28;20068;-68
2023/04/22 00:17:48;;;;;;;15.35;11.35;;;10.90;99.90;;;;;;5006915;28;210498;-69
2023/04/22 00:20:14;;;;;;;15.30;10.50;;;10.80;99.90;;;;;;5076529;28;20114;-68
2023/04/22 00:22:40;;;;;;;15.63;10.63;;;10.80;99.90;;;;;;5023429;28;207489;-68
2023/04/22 00:25:06;;;;;;;14.85;9.63;;;10.70;99.90;;;;;;5074059;28;20064;-68
2023/04/22 00:27:33;;;;;;;18.85;10.55;;;10.70;99.90;;;;;;5008738;27;205961;-68
2023/04/22 00:29:59;;;;;;;16.88;11.07;;;10.60;99.90;;;;;;5079951;28;20056;-68
2023/04/22 00:32:25;;;;;;;17.33;10.98;;;10.60;99.90;;;;;;5016711;28;226551;-70
2023/04/22 00:34:51;;;;;;;15.90;11.07;;;10.50;99.90;;;;;;5073170;28;20040;-69
2023/04/22 00:37:17;;;;;;;15.98;10.82;;;10.50;99.90;;;;;;5019313;28;211250;-68
2023/04/22 00:39:43;;;;;;;17.60;11.63;;;10.50;99.90;;;;;;5072275;28;20044;-68
2023/04/22 00:42:11;;;;;;;17.27;11.07;;;10.40;99.90;;;;;;5018246;28;214145;-68
2023/04/22 00:44:39;;;;;;;18.77;11.50;;;10.30;99.90;;;;;;5073519;28;20048;-68
2023/04/22 00:47:06;;;;;;;17.27;11.90;;;10.30;99.90;;;;;;5020763;28;206945;-69
2023/04/22 00:49:34;;;;;;;16.90;11.35;;;10.20;99.90;;;;;;5085862;28;20052;-68
2023/04/22 00:52:00;;;;;;;19.30;11.90;;;10.20;99.90;;;;;;5014809;28;208917;-68
2023/04/22 00:54:27;;;;;;;18.02;11.50;;;10.20;99.90;;;;;;5077357;28;20067;-68
2023/04/22 00:56:55;;;;;;;19.73;12.15;;;10.10;99.90;;;;;;5001012;28;207257;-69
2023/04/22 00:59:22;;;;;;;16.35;11.68;;;10.10;99.90;;;;;;5078084;28;20056;-69
2023/04/22 01:01:49;;;;;;;15.88;12.00;;;10.10;99.90;;;;;;5016026;28;208843;-69
2023/04/22 01:04:16;;;;;;;16.48;11.50;;;10.00;99.90;;;;;;5064292;28;20059;-68
2023/04/22 01:06:43;;;;;;;17.02;12.07;;;10.00;99.90;;;;;;5015084;28;206557;-68
2023/04/22 01:09:09;;;;;;;18.05;13.10;;;10.00;99.90;;;;;;5070705;28;20049;-69
2023/04/22 01:11:35;;;;;;;17.83;13.30;;;10.00;99.90;;;;;;5006235;28;181315;-69
2023/04/22 01:14:02;;;;;;;17.83;12.60;;;10.00;99.90;;;;;;5080349;28;20516;-69
2023/04/22 01:16:30;;;;;;;18.55;12.60;;;10.10;99.90;;;;;;5015029;28;209348;-69
2023/04/22 01:18:56;;;;;;;16.73;12.13;;;10.10;99.90;;;;;;5066315;28;20174;-69
2023/04/22 01:21:23;;;;;;;16.92;12.13;;;10.10;99.90;;;;;;5001853;28;208304;-68
2023/04/22 01:23:50;;;;;;;16.33;12.25;;;10.10;99.90;;;;;;5057796;28;20060;-69
2023/04/22 01:26:16;;;;;;;18.50;11.77;;;10.10;99.90;;;;;;4997776;28;219024;-69
2023/04/22 01:28:42;;;;;;;17.13;11.90;;;10.10;99.90;;;;;;5055883;28;20056;-69
2023/04/22 01:31:08;;;;;;;19.33;13.13;;;10.10;99.90;;;;;;5004916;28;208009;-68
2023/04/22 01:33:34;;;;;;;20.48;13.57;;;10.10;99.90;;;;;;5051898;28;20052;-68
2023/04/22 01:36:01;;;;;;;19.20;14.55;;;10.10;99.90;;;;;;5050508;28;207480;-67
2023/04/22 01:38:27;;;;;;;21.60;15.52;;;10.10;99.90;;;;;;4979000;28;175186;-68
2023/04/22 01:40:54;;;;;;;17.70;12.43;;;10.10;99.90;;;;;;5050925;28;20594;-68
2023/04/22 01:43:20;;;;;;;21.05;14.90;;;10.10;99.90;;;;;;4982101;28;84884;-69
2023/04/22 01:45:46;;;;;;;21.48;14.77;;;10.10;99.90;;;;;;5053381;28;20048;-69
2023/04/22 01:48:12;;;;;;;18.15;14.00;;;10.10;99.90;;;;;;4999538;28;206715;-68
2023/04/22 01:50:38;;;;;;;21.55;15.05;;;10.00;99.90;;;;;;5049240;28;20068;-69
2023/04/22 01:53:06;;;;;;;22.05;14.98;;;10.00;99.90;;;;;;4995624;28;217555;-68
2023/04/22 01:55:34;;;;;;;18.60;13.60;;;9.90;99.90;;;;;;5049481;28;20048;-67
2023/04/22 01:58:01;;;;;;;23.15;14.77;;;9.90;99.90;;;;;;4992111;28;250214;-68
2023/04/22 02:00:27;;;;;;;19.42;13.02;;;9.80;99.90;;;;;;5054446;28;20061;-68
2023/04/22 02:02:53;;;;;;;21.38;14.73;;;9.80;99.90;;;;;;4982296;28;214804;-68
2023/04/22 02:05:19;;;;;;;21.38;14.85;;;9.70;99.90;;;;;;5053018;28;20052;-68
2023/04/22 02:07:45;;;;;;;20.00;15.05;;;9.70;99.90;;;;;;4985078;28;209795;-69
2023/04/22 02:10:11;;;;;;;18.40;13.45;;;9.60;99.90;;;;;;5053330;28;20052;-68
2023/04/22 02:12:37;;;;;;;21.67;14.55;;;9.60;99.90;;;;;;5005180;28;213006;-68
2023/04/22 02:15:04;;;;;;;23.83;16.52;;;9.50;99.90;;;;;;5059947;28;20052;-68
2023/04/22 02:17:30;;;;;;;21.13;15.27;;;9.50;99.90;;;;;;4999133;28;205834;-69
2023/04/22 02:19:56;;;;;;;19.13;14.30;;;9.40;99.90;;;;;;5050467;28;20064;-68
2023/04/22 02:22:22;;;;;;;22.90;16.70;;;9.40;99.90;;;;;;4984248;28;238482;-69
2023/04/22 02:24:49;;;;;;;24.30;17.20;;;9.40;99.90;;;;;;5042964;28;20091;-69
2023/04/22 02:27:15;;;;;;;19.77;15.50;;;9.30;99.90;;;;;;5001176;28;207552;-69
2023/04/22 02:29:41;;;;;;;26.02;18.63;;;9.30;99.90;;;;;;5065928;28;20049;-68
2023/04/22 02:32:07;;;;;;;22.45;17.33;;;9.30;99.90;;;;;;5004206;28;209352;-68
2023/04/22 02:34:33;;;;;;;21.13;16.15;;;9.30;99.90;;;;;;5054206;28;20056;-69
2023/04/22 02:36:59;;;;;;;25.05;19.08;;;9.30;99.90;;;;;;5003774;28;213668;-68
2023/04/22 02:39:25;;;;;;;25.00;18.83;;;9.20;99.90;;;;;;5047952;28;20061;-68
2023/04/22 02:41:51;;;;;;;26.83;19.75;;;9.20;99.90;;;;;;5005843;28;210677;-68
2023/04/22 02:44:17;;;;;;;25.13;18.73;;;9.20;99.90;;;;;;5072487;28;20603;-68
2023/04/22 02:46:43;;;;;;;23.50;18.13;;;9.20;99.90;;;;;;5003658;28;215314;-69
2023/04/22 02:49:09;;;;;;;24.02;18.35;;;9.10;99.90;;;;;;5074352;28;20052;-68
2023/04/22 02:51:38;;;;;;;24.58;20.02;;;9.10;99.90;;;;;;5025988;28;207463;-69
2023/04/22 02:54:04;;;;;;;26.20;20.55;;;9.10;99.90;;;;;;5072230;28;20094;-68
2023/04/22 02:56:30;;;;;;;27.10;19.50;;;9.00;99.90;;;;;;5003274;28;208871;-68
2023/04/22 02:58:56;;;;;;;25.35;19.80;;;9.00;99.90;;;;;;5092978;28;20414;-68
2023/04/22 03:01:22;;;;;;;25.02;19.05;;;9.00;99.90;;;;;;5014449;28;214292;-68
2023/04/22 03:03:48;;;;;;;27.27;21.05;;;9.00;99.90;;;;;;5065827;28;20055;-68
2023/04/22 03:06:15;;;;;;;28.58;20.33;;;9.00;99.90;;;;;;5010102;28;216172;-69
2023/04/22 03:08:41;;;;;;;25.92;18.20;;;9.00;99.90;;;;;;5061467;28;20060;-69
2023/04/22 03:11:07;;;;;;;26.17;19.55;;;8.90;99.90;;;;;;5029760;28;210941;-69
2023/04/22 03:13:33;;;;;;;24.35;19.73;;;8.90;99.90;;;;;;5064634;28;20048;-69
2023/04/22 03:15:59;;;;;;;26.00;20.08;;;8.90;99.90;;;;;;5074453;28;20123;-68
2023/04/22 03:18:25;;;;;;;30.10;21.08;;;8.90;99.90;;;;;;5018327;28;208363;-68
2023/04/22 03:20:51;;;;;;;24.48;18.73;;;8.80;99.90;;;;;;5076545;28;20052;-68
2023/04/22 03:23:17;;;;;;;26.63;21.15;;;8.80;99.90;;;;;;4987848;28;234733;-68
2023/04/22 03:25:43;;;;;;;29.00;21.38;;;8.80;99.90;;;;;;5074561;28;20459;-68
2023/04/22 03:28:09;;;;;;;26.17;19.70;;;8.80;99.90;;;;;;5006775;28;208130;-68
2023/04/22 03:30:35;;;;;;;27.40;20.92;;;8.80;99.90;;;;;;5057278;28;20041;-68
2023/04/22 03:33:01;;;;;;;29.40;22.08;;;8.80;99.90;;;;;;4980373;28;231317;-69
2023/04/22 03:35:27;;;;;;;28.48;22.95;;;8.80;99.90;;;;;;5056598;28;20411;-68
2023/04/22 03:37:53;;;;;;;28.27;21.42;;;8.70;99.90;;;;;;4982446;28;209231;-68
2023/04/22 03:40:19;;;;;;;25.55;18.67;;;8.70;99.90;;;;;;5048339;28;20037;-68
2023/04/22 03:42:45;;;;;;;31.35;22.70;;;8.70;99.90;;;;;;4978430;28;207055;-69
2023/04/22 03:45:12;;;;;;;32.35;24.50;;;8.70;99.90;;;;;;5045985;28;20045;-68
2023/04/22 03:47:38;;;;;;;35.45;24.27;;;8.70;99.90;;;;;;4988188;28;212677;-69
2023/04/22 03:50:04;;;;;;;32.42;24.15;;;8.60;99.90;;;;;;5059611;28;20044;-68
2023/04/22 03:52:30;;;;;;;30.42;24.10;;;8.70;99.90;;;;;;5002031;28;208827;-68
2023/04/22 03:54:56;;;;;;;31.25;25.45;;;8.70;99.90;;;;;;5057079;28;20064;-69
2023/04/22 03:57:23;;;;;;;31.05;23.77;;;8.70;99.90;;;;;;5005394;27;212700;-69
2023/04/22 03:59:49;;;;;;;31.77;23.05;;;8.70;99.90;;;;;;5066607;28;20057;-69
2023/04/22 04:02:15;;;;;;;32.03;24.50;;;8.70;99.90;;;;;;5003661;28;214185;-68
2023/04/22 04:04:41;;;;;;;32.15;22.95;;;8.70;99.90;;;;;;5052088;28;20049;-67
2023/04/22 04:07:07;;;;;;;33.50;24.88;;;8.70;99.90;;;;;;5002828;28;205479;-68
2023/04/22 04:09:33;;;;;;;31.45;24.00;;;8.80;99.90;;;;;;5044676;28;20068;-68
2023/04/22 04:12:00;;;;;;;30.98;24.23;;;8.80;99.90;;;;;;4997785;28;207080;-69
2023/04/22 04:14:26;;;;;;;32.15;24.02;;;8.80;99.90;;;;;;5047641;28;20056;-67
2023/04/22 04:16:52;;;;;;;32.13;24.00;;;8.80;99.90;;;;;;4986950;28;211200;-68
2023/04/22 04:19:18;;;;;;;30.42;23.45;;;8.70;99.90;;;;;;5046955;28;20376;-68
2023/04/22 04:21:44;;;;;;;28.17;22.05;;;8.70;99.90;;;;;;5000571;28;207440;-68
2023/04/22 04:24:10;;;;;;;28.63;22.55;;;8.60;99.90;;;;;;5058062;28;20055;-69
2023/04/22 04:26:36;;;;;;;27.70;21.98;;;8.70;99.90;;;;;;4993013;28;206943;-69
2023/04/22 04:29:04;;;;;;;29.85;22.55;;;8.70;99.90;;;;;;5056435;28;20057;-68
2023/04/22 04:31:30;;;;;;;27.10;21.75;;;8.70;99.90;;;;;;4997443;28;221164;-68
2023/04/22 04:33:56;;;;;;;29.95;22.95;;;8.70;99.90;;;;;;5042854;28;20059;-69
2023/04/22 04:36:26;;;;;;;27.00;20.75;;;8.70;99.90;;;;;;4996723;28;206828;-68
2023/04/22 04:38:52;;;;;;;24.88;19.20;;;8.70;99.90;;;;;;5055251;28;20032;-68
2023/04/22 04:41:19;;;;;;;27.83;21.70;;;8.70;99.90;;;;;;4993988;28;212200;-68
2023/04/22 04:43:46;;;;;;;29.67;21.83;;;8.70;99.90;;;;;;5047548;28;20475;-68
2023/04/22 04:46:13;;;;;;;30.83;20.98;;;8.70;99.90;;;;;;4991277;28;220231;-69
2023/04/22 04:48:44;;;;;;;26.90;21.08;;;8.80;99.90;;;;;;5037597;28;20056;-68
2023/04/22 04:51:11;;;;;;;27.90;21.65;;;8.80;99.90;;;;;;4991774;28;230779;-69
2023/04/22 04:53:37;;;;;;;25.77;20.50;;;8.80;99.90;;;;;;5059170;28;20052;-68
2023/04/22 04:56:03;;;;;;;26.48;19.55;;;8.90;99.90;;;;;;5040775;28;205878;-68
2023/04/22 04:58:29;;;;;;;23.90;19.55;;;8.90;99.90;;;;;;4985955;28;27903;-68
2023/04/22 05:00:55;;;;;;;29.42;20.90;;;8.90;99.90;;;;;;5059105;28;20052;-68
2023/04/22 05:03:22;;;;;;;25.77;19.92;;;9.00;99.90;;;;;;4990149;28;207504;-68
2023/04/22 05:05:48;;;;;;;24.92;19.80;;;9.00;99.90;;;;;;5058327;28;20417;-69
2023/04/22 05:08:14;;;;;;;27.20;20.40;;;9.10;99.90;;;;;;4989048;28;209962;-68
2023/04/22 05:10:41;;;;;;;23.48;18.75;;;9.10;99.90;;;;;;5052604;28;20537;-68
2023/04/22 05:13:07;;;;;;;27.10;19.23;;;9.10;99.90;;;;;;4985225;28;207064;-68
2023/04/22 05:15:33;;;;;;;22.80;17.67;;;9.20;99.90;;;;;;5055592;28;20513;-69
2023/04/22 05:17:59;;;;;;;23.45;18.67;;;9.30;99.90;;;;;;4999267;28;209193;-69
2023/04/22 05:20:25;;;;;;;25.25;19.38;;;9.30;99.90;;;;;;5055630;28;20423;-68
2023/04/22 05:22:51;;;;;;;24.95;18.55;;;9.30;99.90;;;;;;4999220;28;207084;-67
2023/04/22 05:25:18;;;;;;;23.83;18.35;;;9.30;99.90;;;;;;5051063;28;20064;-67
2023/04/22 05:27:44;;;;;;;26.35;19.77;;;9.40;99.90;;;;;;5004875;28;210287;-68
2023/04/22 05:30:10;;;;;;;25.38;18.67;;;9.40;99.90;;;;;;5056189;28;20519;-67
2023/04/22 05:32:36;;;;;;;23.15;18.42;;;9.40;99.90;;;;;;4997464;28;211884;-67
2023/04/22 05:35:03;;;;;;;24.88;18.55;;;9.40;99.90;;;;;;5051934;28;20056;-68
2023/04/22 05:37:29;;;;;;;21.38;17.10;;;9.50;99.90;;;;;;4985679;28;207055;-69
2023/04/22 05:39:55;;;;;;;22.60;18.55;;;9.50;99.90;;;;;;5048631;28;20135;-67
2023/04/22 05:42:21;;;;;;;21.75;17.55;;;9.60;99.90;;;;;;4999050;28;225474;-67
2023/04/22 05:44:47;;;;;;;19.15;15.05;;;9.60;99.90;;;;;;5072517;28;20056;-68
2023/04/22 05:47:14;;;;;;;22.38;17.35;;;9.60;99.90;;;;;;5016856;28;208627;-68
2023/04/22 05:49:40;;;;;;;21.67;15.98;;;9.70;99.90;;;;;;5060515;28;20068;-67
2023/04/22 05:52:06;;;;;;;20.70;16.08;;;9.70;99.90;;;;;;5006643;28;207380;-67
2023/04/22 05:54:32;;;;;;;19.73;16.00;;;9.80;99.90;;;;;;5070812;28;20063;-68
2023/04/22 05:56:58;;;;;;;19.48;16.27;;;9.80;99.90;;;;;;5006267;28;208857;-67
2023/04/22 05:59:25;;;;;;;20.05;15.82;;;9.90;99.90;;;;;;5066639;28;20518;-68
2023/04/22 06:01:51;;;;;;;18.25;15.18;;;10.00;99.90;;;;;;4998673;28;209032;-68
2023/04/22 06:04:17;;;;;;;19.85;14.30;;;10.00;99.90;;;;;;5066284;28;20131;-67
2023/04/22 06:06:44;;;;;;;20.95;15.07;;;10.10;99.90;;;;;;5014365;28;212658;-68
2023/04/22 06:09:10;;;;;;;21.33;15.88;;;10.10;99.90;;;;;;5081077;28;20055;-67
2023/04/22 06:11:36;;;;;;;19.75;15.38;;;10.20;99.90;;;;;;5016051;28;207548;-66
2023/04/22 06:14:02;;;;;;;19.35;15.98;;;10.20;99.90;;;;;;5065386;28;20499;-67
2023/04/22 06:16:28;;;;;;;19.08;14.57;;;10.30;99.90;;;;;;5025068;28;206745;-67
2023/04/22 06:18:54;;;;;;;19.33;14.85;;;10.40;99.90;;;;;;5061652;28;20078;-67
2023/04/22 06:21:21;;;;;;;18.05;14.40;;;10.50;99.90;;;;;;5020072;28;207842;-67
2023/04/22 06:23:47;;;;;;;20.98;15.25;;;10.60;99.90;;;;;;5062217;28;20044;-68
2023/04/22 06:26:13;;;;;;;18.93;15.10;;;10.60;99.90;;;;;;5013151;28;207813;-67
2023/04/22 06:28:39;;;;;;;21.25;14.70;;;10.70;99.90;;;;;;5066946;28;20048;-67
2023/04/22 06:31:05;;;;;;;23.17;15.80;;;10.70;99.90;;;;;;5041437;28;210198;-67
2023/04/22 06:33:31;;;;;;;19.40;15.07;;;10.80;99.90;;;;;;5017145;28;207450;-67
2023/04/22 06:35:57;;;;;;;20.25;15.38;;;10.90;99.90;;;;;;5076797;28;20523;-67
2023/04/22 06:38:24;;;;;;;19.67;15.57;;;10.90;99.90;;;;;;5027930;28;208020;-67
2023/04/22 06:40:50;;;;;;;18.15;14.52;;;11.00;99.90;;;;;;5058788;28;20589;-67
2023/04/22 06:43:16;;;;;;;18.90;15.07;;;11.10;99.90;;;;;;5009077;28;207384;-67
2023/04/22 06:45:42;;;;;;;19.23;15.05;;;11.10;99.90;;;;;;5076855;28;20421;-67
2023/04/22 06:48:08;;;;;;;18.48;14.25;;;11.20;99.90;;;;;;5004729;28;205631;-69
2023/04/22 06:50:34;;;;;;;19.70;14.25;;;11.30;99.90;;;;;;5076790;28;20130;-68
2023/04/22 06:53:01;;;;;;;18.90;14.40;;;11.40;99.90;;;;;;5002354;28;210771;-68
2023/04/22 06:55:27;;;;;;;20.17;14.35;;;11.40;99.90;;;;;;5072031;28;20060;-67
2023/04/22 06:57:53;;;;;;;19.55;14.10;;;11.50;99.90;;;;;;5000653;28;212125;-67
2023/04/22 07:00:19;;;;;;;19.08;15.00;;;11.50;99.90;;;;;;5074847;28;20049;-67
2023/04/22 07:02:45;;;;;;;18.15;13.93;;;11.60;99.90;;;;;;5018315;28;208491;-68
2023/04/22 07:05:11;;;;;;;18.33;12.90;;;11.60;99.90;;;;;;5076409;28;20048;-67
2023/04/22 07:07:37;;;;;;;17.63;13.77;;;11.70;99.90;;;;;;5031567;28;207838;-66
2023/04/22 07:10:04;;;;;;;18.30;13.68;;;11.80;99.90;;;;;;5075774;28;20052;-67
2023/04/22 07:12:30;;;;;;;17.27;14.10;;;11.80;99.90;;;;;;5030554;28;207000;-68
2023/04/22 07:14:56;;;;;;;20.25;14.30;;;11.90;99.90;;;;;;5079976;28;20044;-67
2023/04/22 07:17:23;;;;;;;19.65;13.68;;;12.00;99.90;;;;;;4990344;28;210564;-68
2023/04/22 07:19:49;;;;;;;17.08;13.90;;;12.20;99.90;;;;;;5067289;28;20043;-67
2023/04/22 07:22:15;;;;;;;17.00;13.48;;;12.30;99.90;;;;;;5012198;28;207526;-67
2023/04/22 07:24:41;;;;;;;16.52;12.43;;;12.40;99.90;;;;;;5073654;28;20047;-68
2023/04/22 07:27:07;;;;;;;17.88;13.75;;;12.40;99.90;;;;;;5015466;28;206267;-67
2023/04/22 07:29:33;;;;;;;19.48;14.50;;;12.50;99.90;;;;;;5049676;28;20150;-67
2023/04/22 07:31:59;;;;;;;19.20;13.50;;;12.70;99.90;;;;;;5010269;28;207202;-67
2023/04/22 07:34:26;;;;;;;18.13;13.75;;;12.80;99.90;;;;;;5067781;28;20055;-68
2023/04/22 07:36:52;;;;;;;17.13;13.98;;;12.90;99.90;;;;;;5013574;28;207547;-67
2023/04/22 07:39:18;;;;;;;18.38;12.65;;;13.10;99.90;;;;;;5079311;28;20036;-68
2023/04/22 07:41:45;;;;;;;18.70;13.15;;;13.00;99.90;;;;;;5012771;28;207575;-67
2023/04/22 07:44:15;;;;;;;15.65;12.80;;;13.10;99.90;;;;;;5081197;28;20036;-68
2023/04/22 07:46:41;;;;;;;16.40;12.63;;;13.30;99.90;;;;;;5016051;28;218480;-68
2023/04/22 07:49:07;;;;;;;17.65;12.50;;;13.50;99.90;;;;;;5082566;28;20055;-68
2023/04/22 07:51:34;;;;;;;17.08;11.75;;;13.60;99.90;;;;;;5017285;28;210005;-67
2023/04/22 07:54:00;;;;;;;15.57;12.32;;;13.70;99.90;;;;;;5043421;28;20053;-67
2023/04/22 07:56:26;;;;;;;16.80;12.13;;;13.80;99.90;;;;;;4991269;28;207610;-67
2023/04/22 07:58:52;;;;;;;15.75;12.48;;;13.90;99.90;;;;;;5044049;28;20061;-69
2023/04/22 08:01:18;;;;;;;17.70;12.57;;;14.10;99.90;;;;;;5006712;28;213995;-68
2023/04/22 08:03:45;;;;;;;14.23;11.63;;;14.30;99.90;;;;;;5062295;28;21184;-69
2023/04/22 08:06:11;;;;;;;15.55;11.18;;;14.50;99.90;;;;;;4998005;27;212679;-69
2023/04/22 08:08:37;;;;;;;14.20;11.07;;;14.80;99.90;;;;;;5074387;28;20758;-69
2023/04/22 08:11:03;;;;;;;16.48;10.60;;;14.80;99.90;;;;;;5065972;28;210862;-69
2023/04/22 08:13:29;;;;;;;14.85;11.05;;;15.00;99.90;;;;;;5006859;28;77311;-69
2023/04/22 08:15:56;;;;;;;16.38;11.43;;;15.20;99.90;;;;;;5053843;28;20055;-69
2023/04/22 08:18:22;;;;;;;15.07;10.07;;;15.40;99.90;;;;;;5012759;28;220255;-69
2023/04/22 08:20:49;;;;;;;14.68;10.70;;;15.70;99.90;;;;;;5073143;28;20047;-68
2023/04/22 08:23:15;;;;;;;15.10;10.00;;;15.70;99.90;;;;;;5003319;28;217828;-68
2023/04/22 08:25:41;;;;;;;14.90;9.60;;;15.80;99.90;;;;;;5073360;28;20057;-69
2023/04/22 08:28:07;;;;;;;14.07;9.40;;;16.00;99.90;;;;;;5017203;28;213083;-67
2023/04/22 08:30:34;;;;;;;15.55;9.13;;;16.40;99.90;;;;;;5073714;28;20059;-68
2023/04/22 08:33:00;;;;;;;13.43;9.15;;;16.50;99.90;;;;;;5019546;28;210359;-68
2023/04/22 08:35:26;;;;;;;13.57;8.80;;;16.80;99.90;;;;;;5073216;28;20051;-68
2023/04/22 08:37:52;;;;;;;13.13;8.88;;;16.80;99.90;;;;;;5012156;28;208554;-68
2023/04/22 08:40:18;;;;;;;12.02;8.75;;;17.20;99.90;;;;;;5071717;28;20048;-69
2023/04/22 08:42:45;;;;;;;13.20;8.48;;;17.50;99.90;;;;;;5017659;28;213665;-68
2023/04/22 08:45:12;;;;;;;13.90;8.80;;;18.00;99.90;;;;;;5052015;28;20060;-70
2023/04/22 08:47:38;;;;;;;12.38;8.15;;;18.60;99.90;;;;;;5011311;28;216212;-69
2023/04/22 08:50:06;;;;;;;11.38;8.10;;;19.00;99.90;;;;;;5079120;28;20087;-69
2023/04/22 08:52:32;;;;;;;13.23;7.25;;;19.00;99.90;;;;;;5009634;28;217949;-68
2023/04/22 08:54:58;;;;;;;11.77;8.10;;;19.20;99.90;;;;;;5085603;28;20048;-70
2023/04/22 08:57:25;;;;;;;11.98;7.63;;;19.30;99.90;;;;;;4999655;28;274391;-69
2023/04/22 08:59:55;;;;;;;11.70;7.35;;;20.00;99.90;;;;;;5078260;28;20048;-69
2023/04/22 09:02:23;;;;;;;11.38;7.38;;;20.90;99.90;;;;;;5011668;28;213900;-68
2023/04/22 09:04:52;;;;;;;11.05;7.07;;;21.30;99.90;;;;;;5072815;28;20052;-67
2023/04/22 09:07:29;;;;;;;11.02;6.53;;;20.80;99.90;;;;;;5015362;28;207791;-69
2023/04/22 09:09:56;;;;;;;11.10;6.72;;;20.80;99.90;;;;;;5063746;28;20048;-69
2023/04/22 09:12:24;;;;;;;11.13;6.65;;;21.00;99.90;;;;;;4979333;28;208662;-70
2023/04/22 09:14:51;;;;;;;11.52;6.72;;;21.50;99.90;;;;;;5045350;28;20059;-69
2023/04/22 09:17:28;;;;;;;10.20;6.20;;;22.20;99.90;;;;;;4999683;28;217592;-70
2023/04/22 09:19:59;;;;;;;11.15;6.55;;;22.40;99.90;;;;;;5060738;28;20057;-69
2023/04/22 09:22:26;;;;;;;;;;;22.50;99.90;;;;;;5015720;28;212839;-69
2023/04/22 09:24:52;;;;;;;11.57;6.43;;;22.50;97.90;;;;;;5067162;28;19928;-68
2023/04/22 09:27:20;;;;;;;11.43;6.10;;;22.40;99.90;;;;;;4990752;28;215747;-68
2023/04/22 09:29:52;;;;;;;11.00;6.85;;;22.20;99.90;;;;;;5049502;28;20065;-68
2023/04/22 09:32:18;;;;;;;11.15;6.15;;;22.90;99.90;;;;;;4998960;28;210157;-68
2023/04/22 09:34:50;;;;;;;10.75;6.28;;;23.20;99.90;;;;;;5060484;28;20798;-68
2023/04/22 09:37:26;;;;;;;12.38;6.40;;;22.70;99.90;;;;;;5012575;28;205694;-69
2023/04/22 09:39:53;;;;;;;10.23;6.25;;;22.10;99.90;;;;;;5078470;28;20048;-68
2023/04/22 09:42:20;;;;;;;9.95;6.50;;;21.60;99.90;;;;;;5004470;28;214855;-69
2023/04/22 09:44:51;;;;;;;10.07;6.32;;;21.70;99.90;;;;;;5068298;28;20048;-68
2023/04/22 09:47:19;;;;;;;11.85;6.40;;;21.80;99.90;;;;;;5031829;28;216045;-69
2023/04/22 09:49:48;;;;;;;10.13;6.60;;;21.90;99.90;;;;;;5083385;28;20059;-68
2023/04/22 09:52:25;;;;;;;11.60;6.35;;;22.10;99.90;;;;;;5028168;28;209991;-69
2023/04/22 09:54:53;;;;;;;11.35;6.43;;;22.10;99.90;;;;;;5080448;28;20802;-69
2023/04/22 09:57:20;;;;;;;11.63;6.57;;;22.20;99.90;;;;;;5006356;28;213765;-68
2023/04/22 09:59:50;;;;;;;10.13;6.28;;;22.30;99.90;;;;;;5071264;28;20043;-68
2023/04/22 10:02:16;;;;;;;9.88;5.78;;;22.40;99.90;;;;;;5029648;28;221314;-68
2023/04/22 10:04:42;;;;;;;11.57;5.88;;;22.10;99.90;;;;;;5079993;28;20052;-68
2023/04/22 10:07:08;;;;;;;11.57;6.05;;;22.10;99.90;;;;;;5022349;28;210026;-69
2023/04/22 10:09:34;;;;;;;9.55;5.80;;;22.20;99.90;;;;;;5084218;28;20060;-69
2023/04/22 10:12:00;;;;;;;11.25;6.15;;;22.60;99.90;;;;;;5017244;28;210652;-69
2023/04/22 10:14:26;;;;;;;11.10;5.57;;;22.80;99.90;;;;;;5071116;28;20419;-69
2023/04/22 10:16:59;;;;;;;10.82;5.45;;;23.50;99.90;;;;;;5019452;28;227462;-69
2023/04/22 10:19:26;;;;;;;11.07;5.50;;;24.10;99.90;;;;;;5075745;28;20048;-69
2023/04/22 10:21:55;;;;;;;10.73;5.20;;;24.20;99.90;;;;;;5010342;28;205049;-69
2023/04/22 10:24:25;;;;;;;9.90;5.35;;;24.40;99.90;;;;;;5058807;28;20064;-69
2023/04/22 10:26:57;;;;;;;9.65;5.30;;;24.50;99.90;;;;;;5005977;28;215559;-69
2023/04/22 10:29:25;;;;;;;9.95;5.50;;;24.20;99.80;;;;;;5065468;28;20052;-70
2023/04/22 10:32:02;;;;;;;9.30;5.70;;;24.10;99.90;;;;;;5019205;28;207181;-69
2023/04/22 10:34:31;;;;;;;9.45;5.50;;;24.30;99.90;;;;;;5085073;28;20082;-69
2023/04/22 10:37:08;;;;;;;9.68;5.43;;;24.90;99.90;;;;;;5020770;28;215849;-70
2023/04/22 10:39:34;;;;;;;11.65;5.90;;;25.40;99.90;;;;;;5089020;28;20049;-69
2023/04/22 10:42:05;;;;;;;10.98;5.25;;;25.50;99.90;;;;;;5016992;28;216586;-70
2023/04/22 10:44:45;;;;;;;9.48;5.38;;;25.80;99.60;;;;;;5083756;28;20051;-68
2023/04/22 10:47:11;;;;;;;10.00;4.40;;;26.30;94.70;;;;;;5022846;28;204318;-69
2023/04/22 10:49:37;;;;;;;9.40;4.82;;;25.50;98.70;;;;;;5070625;28;20051;-68
2023/04/22 10:52:05;;;;;;;9.32;4.28;;;25.60;98.40;;;;;;5014073;28;212660;-68
2023/04/22 10:54:35;;;;;;;8.70;4.60;;;25.60;99.30;;;;;;5080674;28;20052;-68
2023/04/22 10:57:06;;;;;;;9.57;4.20;;;26.00;99.40;;;;;;5008244;28;216625;-67
2023/04/22 10:59:40;;;;;;;9.85;4.65;;;26.60;97.90;;;;;;5083592;28;20507;-68
2023/04/22 11:02:07;;;;;;;8.75;4.00;;;26.70;98.00;;;;;;5027572;28;227984;-68
2023/04/22 11:04:34;;;;;;;10.13;4.38;;;27.00;98.20;;;;;;5073496;28;20811;-68
2023/04/22 11:07:28;;;;;;;8.02;3.90;;;27.50;97.60;;;;;;5015152;28;207563;-68
2023/04/22 11:10:05;;;;;;;8.15;4.03;;;27.70;94.10;;;;;;5052532;28;20052;-68
2023/04/22 11:12:34;;;;;;;7.65;4.03;;;27.10;92.70;;;;;;5010521;28;60689;-68
2023/04/22 11:15:23;;;;;;;7.78;3.67;;;26.80;95.10;;;;;;5059877;28;20055;-69
2023/04/22 11:17:51;;;;;;;7.78;3.60;;;26.90;91.40;;;;;;4989889;28;219380;-69
2023/04/22 11:20:18;;;;;;;8.50;3.60;;;27.00;94.30;;;;;;5055359;28;20056;-68
2023/04/22 11:22:46;;;;;;;8.77;4.10;;;27.00;93.60;;;;;;4993686;28;222209;-68
2023/04/22 11:25:13;;;;;;;8.32;4.20;;;27.70;93.80;;;;;;5056101;28;20068;-69
2023/04/22 11:27:42;;;;;;;10.93;4.15;;;28.00;93.20;;;;;;5002623;28;210835;-70
2023/04/22 11:30:10;;;;;;;8.18;4.30;;;27.80;93.10;;;;;;5054582;28;20053;-67
2023/04/22 11:32:54;;;;;;;9.00;4.18;;;27.80;92.20;;;;;;4979091;28;216660;-68
2023/04/22 11:35:26;;;;;;;9.35;3.63;;;28.00;91.50;;;;;;5054629;28;20048;-69
2023/04/22 11:38:01;;;;;;;8.10;3.97;;;28.40;93.30;;;;;;5011418;28;99645;-67
2023/04/22 11:40:30;;;;;;;9.13;4.00;;;28.30;91.00;;;;;;5055657;28;20052;-67
2023/04/22 11:42:57;;;;;;;8.20;3.75;;;28.10;92.50;;;;;;5005450;28;217472;-67
2023/04/22 11:45:24;;;;;;;9.07;4.50;;;27.90;90.40;;;;;;5034965;28;20059;-68
2023/04/22 11:47:51;;;;;;;9.07;4.50;;;27.00;91.90;;;;;;5007763;28;225643;-68
2023/04/22 11:50:24;;;;;;;8.73;4.28;;;26.70;92.80;;;;;;5056511;28;20134;-68
2023/04/22 11:53:02;;;;;;;8.57;4.15;;;26.60;91.20;;;;;;5019422;28;214386;-68
2023/04/22 11:55:33;;;;;;;9.93;4.97;;;26.40;91.30;;;;;;5054106;28;20049;-67
2023/04/22 11:58:06;;;;;;;9.73;4.60;;;26.30;92.30;;;;;;4989961;28;205114;-67
2023/04/22 12:00:36;;;;;;;9.90;4.80;;;25.60;91.30;;;;;;5056868;28;20049;-67
2023/04/22 12:03:06;;;;;;;9.13;4.93;;;25.00;91.80;;;;;;4992684;28;216034;-67
2023/04/22 12:05:37;;;;;;;8.35;4.85;;;24.90;92.40;;;;;;5059090;28;20152;-68
2023/04/22 12:08:08;;;;;;;10.35;5.18;;;24.80;92.70;;;;;;5016133;28;212049;-68
2023/04/22 12:10:43;;;;;;;9.60;5.13;;;24.50;92.80;;;;;;5059458;28;20096;-67
2023/04/22 12:13:09;;;;;;;10.05;5.50;;;24.00;92.80;;;;;;4988427;28;224615;-67
2023/04/22 12:15:41;;;;;;;10.80;5.72;;;23.60;93.20;;;;;;5062427;28;20115;-66
2023/04/22 12:18:07;;;;;;;9.80;5.88;;;23.70;93.40;;;;;;5006666;28;217638;-67
2023/04/22 12:20:35;;;;;;;10.05;5.47;;;23.50;93.30;;;;;;5064901;28;20392;-68
2023/04/22 12:23:02;;;;;;;9.18;5.70;;;23.50;93.30;;;;;;4983694;28;224180;-68
2023/04/22 12:25:28;;;;;;;11.90;6.28;;;23.60;93.40;;;;;;5055728;28;20103;-68
2023/04/22 12:27:56;;;;;;;11.55;6.38;;;23.60;93.70;;;;;;5006039;28;213373;-68
2023/04/22 12:30:23;;;;;;;12.73;6.38;;;23.90;93.60;;;;;;5051539;28;20083;-67